sensor_id;sensor_type;location;lat;lon;timestamp;P1;durP1;ratioP1;P2;durP2;ratioP2
21420;SDS011;10871;50.144;8.428;2023-05-07T00:02:14;4.68;;;4.07;;
21420;SDS011;10871;50.144;8.428;2023-05-07T00:04:41;5.13;;;4.13;;
21420;SDS011;10871;50.144;8.428;2023-05-07T00:07:08;6.47;;;3.97;;
21420;SDS011;10871;50.144;8.428;2023-05-07T00:09:35;6.60;;;4.03;;
21420;SDS011;10871;50.144;8.428;2023-05-07T00:12:02;4.47;;;3.67;;
21420;SDS011;10871;50.144;8.428;2023-05-07T00:14:29;5.90;;;3.85;;
21420;SDS011;10871;50.144;8.428;2023-05-07T00:16:57;4.53;;;3.47;;
21420;SDS011;10871;50.144;8.428;2023-05-07T00:19:24;5.55;;;3.90;;
21420;SDS011;10871;50.144;8.428;2023-05-07T00:21:50;4.25;;;3.80;;
21420;SDS011;10871;50.144;8.428;2023-05-07T00:24:16;6.30;;;3.78;;
21420;SDS011;10871;50.144;8.428;2023-05-07T00:26:44;4.97;;;3.65;;
21420;SDS011;10871;50.144;8.428;2023-05-07T00:29:10;5.90;;;3.80;;
21420;SDS011;10871;50.144;8.428;2023-05-07T00:31:37;3.83;;;3.17;;
21420;SDS011;10871;50.144;8.428;2023-05-07T00:34:04;4.28;;;3.42;;
21420;SDS011;10871;50.144;8.428;2023-05-07T00:36:30;5.03;;;2.97;;
21420;SDS011;10871;50.144;8.428;2023-05-07T00:38:58;4.88;;;3.25;;
21420;SDS011;10871;50.144;8.428;2023-05-07T00:41:26;5.25;;;3.35;;
21420;SDS011;10871;50.144;8.428;2023-05-07T00:43:52;5.03;;;3.30;;
21420;SDS011;10871;50.144;8.428;2023-05-07T00:46:20;4.07;;;3.33;;
21420;SDS011;10871;50.144;8.428;2023-05-07T00:48:49;3.85;;;3.08;;
21420;SDS011;10871;50.144;8.428;2023-05-07T00:51:16;4.05;;;3.45;;
21420;SDS011;10871;50.144;8.428;2023-05-07T00:53:43;5.28;;;3.38;;
21420;SDS011;10871;50.144;8.428;2023-05-07T00:56:10;3.20;;;2.90;;
21420;SDS011;10871;50.144;8.428;2023-05-07T00:58:38;9.73;;;3.20;;
21420;SDS011;10871;50.144;8.428;2023-05-07T01:01:05;3.20;;;2.85;;
21420;SDS011;10871;50.144;8.428;2023-05-07T01:03:32;3.80;;;3.00;;
21420;SDS011;10871;50.144;8.428;2023-05-07T01:05:59;3.17;;;2.40;;
21420;SDS011;10871;50.144;8.428;2023-05-07T01:08:28;3.78;;;2.88;;
21420;SDS011;10871;50.144;8.428;2023-05-07T01:10:56;4.28;;;3.05;;
21420;SDS011;10871;50.144;8.428;2023-05-07T01:13:23;4.43;;;2.78;;
21420;SDS011;10871;50.144;8.428;2023-05-07T01:15:51;3.83;;;2.53;;
21420;SDS011;10871;50.144;8.428;2023-05-07T01:18:18;2.92;;;2.63;;
21420;SDS011;10871;50.144;8.428;2023-05-07T01:20:45;6.72;;;2.70;;
21420;SDS011;10871;50.144;8.428;2023-05-07T01:23:11;4.68;;;2.40;;
21420;SDS011;10871;50.144;8.428;2023-05-07T01:25:39;4.18;;;2.58;;
21420;SDS011;10871;50.144;8.428;2023-05-07T01:28:06;3.30;;;2.50;;
21420;SDS011;10871;50.144;8.428;2023-05-07T01:30:35;3.25;;;2.25;;
21420;SDS011;10871;50.144;8.428;2023-05-07T01:33:09;3.38;;;2.80;;
21420;SDS011;10871;50.144;8.428;2023-05-07T01:35:42;3.45;;;2.28;;
21420;SDS011;10871;50.144;8.428;2023-05-07T01:38:10;2.30;;;2.10;;
21420;SDS011;10871;50.144;8.428;2023-05-07T01:40:37;2.70;;;2.30;;
21420;SDS011;10871;50.144;8.428;2023-05-07T01:43:03;4.43;;;2.10;;
21420;SDS011;10871;50.144;8.428;2023-05-07T01:45:32;4.20;;;2.20;;
21420;SDS011;10871;50.144;8.428;2023-05-07T01:48:01;2.97;;;2.10;;
21420;SDS011;10871;50.144;8.428;2023-05-07T01:50:29;3.40;;;2.47;;
21420;SDS011;10871;50.144;8.428;2023-05-07T01:52:56;4.30;;;2.30;;
21420;SDS011;10871;50.144;8.428;2023-05-07T01:55:22;4.88;;;2.65;;
21420;SDS011;10871;50.144;8.428;2023-05-07T01:57:51;2.55;;;2.15;;
21420;SDS011;10871;50.144;8.428;2023-05-07T02:00:19;3.13;;;2.40;;
21420;SDS011;10871;50.144;8.428;2023-05-07T02:02:46;2.80;;;2.10;;
21420;SDS011;10871;50.144;8.428;2023-05-07T02:05:33;3.75;;;2.58;;
21420;SDS011;10871;50.144;8.428;2023-05-07T02:08:06;2.70;;;2.15;;
21420;SDS011;10871;50.144;8.428;2023-05-07T02:10:33;3.25;;;2.10;;
21420;SDS011;10871;50.144;8.428;2023-05-07T02:13:00;3.40;;;2.33;;
21420;SDS011;10871;50.144;8.428;2023-05-07T02:15:28;4.95;;;2.35;;
21420;SDS011;10871;50.144;8.428;2023-05-07T02:18:07;3.15;;;2.35;;
21420;SDS011;10871;50.144;8.428;2023-05-07T02:20:35;2.55;;;2.00;;
21420;SDS011;10871;50.144;8.428;2023-05-07T02:23:03;3.17;;;2.40;;
21420;SDS011;10871;50.144;8.428;2023-05-07T02:25:30;3.53;;;2.60;;
21420;SDS011;10871;50.144;8.428;2023-05-07T02:27:58;4.20;;;2.45;;
21420;SDS011;10871;50.144;8.428;2023-05-07T02:30:37;3.75;;;2.63;;
21420;SDS011;10871;50.144;8.428;2023-05-07T02:33:07;2.80;;;2.20;;
21420;SDS011;10871;50.144;8.428;2023-05-07T02:35:35;3.03;;;2.28;;
21420;SDS011;10871;50.144;8.428;2023-05-07T02:38:01;4.60;;;2.30;;
21420;SDS011;10871;50.144;8.428;2023-05-07T02:40:30;4.38;;;2.22;;
21420;SDS011;10871;50.144;8.428;2023-05-07T02:43:01;3.55;;;2.38;;
21420;SDS011;10871;50.144;8.428;2023-05-07T02:45:27;5.05;;;2.00;;
21420;SDS011;10871;50.144;8.428;2023-05-07T02:47:54;2.60;;;2.30;;
21420;SDS011;10871;50.144;8.428;2023-05-07T02:50:24;3.58;;;2.13;;
21420;SDS011;10871;50.144;8.428;2023-05-07T02:52:51;3.30;;;2.33;;
21420;SDS011;10871;50.144;8.428;2023-05-07T02:55:17;2.20;;;2.00;;
21420;SDS011;10871;50.144;8.428;2023-05-07T02:57:45;2.60;;;2.40;;
21420;SDS011;10871;50.144;8.428;2023-05-07T03:00:15;3.47;;;2.10;;
21420;SDS011;10871;50.144;8.428;2023-05-07T03:02:49;2.33;;;2.10;;
21420;SDS011;10871;50.144;8.428;2023-05-07T03:05:16;3.05;;;2.03;;
21420;SDS011;10871;50.144;8.428;2023-05-07T03:07:43;3.95;;;2.35;;
21420;SDS011;10871;50.144;8.428;2023-05-07T03:10:13;2.78;;;2.22;;
21420;SDS011;10871;50.144;8.428;2023-05-07T03:12:40;3.05;;;2.33;;
21420;SDS011;10871;50.144;8.428;2023-05-07T03:15:09;3.38;;;2.28;;
21420;SDS011;10871;50.144;8.428;2023-05-07T03:17:38;4.38;;;2.08;;
21420;SDS011;10871;50.144;8.428;2023-05-07T03:20:07;2.53;;;2.20;;
21420;SDS011;10871;50.144;8.428;2023-05-07T03:22:39;5.30;;;2.65;;
21420;SDS011;10871;50.144;8.428;2023-05-07T03:25:06;3.72;;;2.28;;
21420;SDS011;10871;50.144;8.428;2023-05-07T03:27:32;2.97;;;2.40;;
21420;SDS011;10871;50.144;8.428;2023-05-07T03:29:59;2.25;;;2.08;;
21420;SDS011;10871;50.144;8.428;2023-05-07T03:32:26;4.03;;;2.20;;
21420;SDS011;10871;50.144;8.428;2023-05-07T03:34:54;3.92;;;2.30;;
21420;SDS011;10871;50.144;8.428;2023-05-07T03:37:21;3.20;;;2.38;;
21420;SDS011;10871;50.144;8.428;2023-05-07T03:39:48;4.03;;;2.97;;
21420;SDS011;10871;50.144;8.428;2023-05-07T03:42:15;4.88;;;3.28;;
21420;SDS011;10871;50.144;8.428;2023-05-07T03:44:42;6.63;;;3.35;;
21420;SDS011;10871;50.144;8.428;2023-05-07T03:47:08;4.60;;;3.45;;
21420;SDS011;10871;50.144;8.428;2023-05-07T03:49:37;5.53;;;3.00;;
21420;SDS011;10871;50.144;8.428;2023-05-07T03:52:04;4.43;;;2.50;;
21420;SDS011;10871;50.144;8.428;2023-05-07T03:54:31;2.67;;;2.25;;
21420;SDS011;10871;50.144;8.428;2023-05-07T03:56:58;3.17;;;2.10;;
21420;SDS011;10871;50.144;8.428;2023-05-07T03:59:24;3.20;;;2.60;;
21420;SDS011;10871;50.144;8.428;2023-05-07T04:01:51;2.88;;;2.40;;
21420;SDS011;10871;50.144;8.428;2023-05-07T04:04:21;2.78;;;2.00;;
21420;SDS011;10871;50.144;8.428;2023-05-07T04:06:48;2.83;;;2.13;;
21420;SDS011;10871;50.144;8.428;2023-05-07T04:09:15;3.30;;;2.20;;
21420;SDS011;10871;50.144;8.428;2023-05-07T04:11:43;2.83;;;2.35;;
21420;SDS011;10871;50.144;8.428;2023-05-07T04:14:10;2.47;;;1.70;;
21420;SDS011;10871;50.144;8.428;2023-05-07T04:16:37;3.67;;;2.30;;
21420;SDS011;10871;50.144;8.428;2023-05-07T04:19:07;2.63;;;2.10;;
21420;SDS011;10871;50.144;8.428;2023-05-07T04:21:33;3.22;;;2.00;;
21420;SDS011;10871;50.144;8.428;2023-05-07T04:24:02;3.28;;;2.10;;
21420;SDS011;10871;50.144;8.428;2023-05-07T04:26:29;10.40;;;4.03;;
21420;SDS011;10871;50.144;8.428;2023-05-07T04:28:57;9.73;;;4.28;;
21420;SDS011;10871;50.144;8.428;2023-05-07T04:31:30;11.15;;;4.13;;
21420;SDS011;10871;50.144;8.428;2023-05-07T04:33:57;11.25;;;4.13;;
21420;SDS011;10871;50.144;8.428;2023-05-07T04:36:24;9.73;;;3.67;;
21420;SDS011;10871;50.144;8.428;2023-05-07T04:39:02;5.93;;;2.80;;
21420;SDS011;10871;50.144;8.428;2023-05-07T04:41:29;3.33;;;2.40;;
21420;SDS011;10871;50.144;8.428;2023-05-07T04:43:57;2.30;;;2.10;;
21420;SDS011;10871;50.144;8.428;2023-05-07T04:46:28;4.07;;;2.33;;
21420;SDS011;10871;50.144;8.428;2023-05-07T04:48:56;4.07;;;2.20;;
21420;SDS011;10871;50.144;8.428;2023-05-07T04:51:23;4.07;;;2.10;;
21420;SDS011;10871;50.144;8.428;2023-05-07T04:53:50;4.10;;;2.05;;
21420;SDS011;10871;50.144;8.428;2023-05-07T04:56:16;2.17;;;2.03;;
21420;SDS011;10871;50.144;8.428;2023-05-07T04:58:44;4.43;;;2.13;;
21420;SDS011;10871;50.144;8.428;2023-05-07T05:01:11;4.22;;;2.05;;
21420;SDS011;10871;50.144;8.428;2023-05-07T05:03:39;2.78;;;1.95;;
21420;SDS011;10871;50.144;8.428;2023-05-07T05:06:08;2.42;;;2.22;;
21420;SDS011;10871;50.144;8.428;2023-05-07T05:08:36;2.72;;;2.10;;
21420;SDS011;10871;50.144;8.428;2023-05-07T05:11:03;2.78;;;1.90;;
21420;SDS011;10871;50.144;8.428;2023-05-07T05:13:32;3.70;;;2.13;;
21420;SDS011;10871;50.144;8.428;2023-05-07T05:16:03;2.63;;;1.95;;
21420;SDS011;10871;50.144;8.428;2023-05-07T05:18:32;2.33;;;2.10;;
21420;SDS011;10871;50.144;8.428;2023-05-07T05:20:59;2.38;;;2.15;;
21420;SDS011;10871;50.144;8.428;2023-05-07T05:23:26;2.67;;;2.25;;
21420;SDS011;10871;50.144;8.428;2023-05-07T05:25:56;2.33;;;1.95;;
21420;SDS011;10871;50.144;8.428;2023-05-07T05:28:26;2.57;;;2.10;;
21420;SDS011;10871;50.144;8.428;2023-05-07T05:30:55;3.50;;;2.38;;
21420;SDS011;10871;50.144;8.428;2023-05-07T05:33:24;5.60;;;2.30;;
21420;SDS011;10871;50.144;8.428;2023-05-07T05:35:51;3.13;;;2.22;;
21420;SDS011;10871;50.144;8.428;2023-05-07T05:38:17;4.63;;;2.65;;
21420;SDS011;10871;50.144;8.428;2023-05-07T05:40:45;3.85;;;2.70;;
21420;SDS011;10871;50.144;8.428;2023-05-07T05:43:13;3.40;;;2.45;;
21420;SDS011;10871;50.144;8.428;2023-05-07T05:45:39;3.08;;;2.72;;
21420;SDS011;10871;50.144;8.428;2023-05-07T05:48:06;3.03;;;2.42;;
21420;SDS011;10871;50.144;8.428;2023-05-07T05:50:32;2.60;;;2.40;;
21420;SDS011;10871;50.144;8.428;2023-05-07T05:52:59;3.47;;;2.47;;
21420;SDS011;10871;50.144;8.428;2023-05-07T05:55:27;2.85;;;2.65;;
21420;SDS011;10871;50.144;8.428;2023-05-07T05:57:54;4.35;;;3.80;;
21420;SDS011;10871;50.144;8.428;2023-05-07T06:00:22;3.30;;;3.00;;
21420;SDS011;10871;50.144;8.428;2023-05-07T06:02:58;4.53;;;2.58;;
21420;SDS011;10871;50.144;8.428;2023-05-07T06:05:25;3.28;;;2.47;;
21420;SDS011;10871;50.144;8.428;2023-05-07T06:07:54;2.65;;;2.25;;
21420;SDS011;10871;50.144;8.428;2023-05-07T06:10:21;4.43;;;2.70;;
21420;SDS011;10871;50.144;8.428;2023-05-07T06:12:48;3.08;;;2.22;;
21420;SDS011;10871;50.144;8.428;2023-05-07T06:15:15;3.53;;;2.72;;
21420;SDS011;10871;50.144;8.428;2023-05-07T06:17:43;3.20;;;2.70;;
21420;SDS011;10871;50.144;8.428;2023-05-07T06:20:10;4.05;;;2.35;;
21420;SDS011;10871;50.144;8.428;2023-05-07T06:22:39;5.53;;;2.38;;
21420;SDS011;10871;50.144;8.428;2023-05-07T06:25:08;3.55;;;2.53;;
21420;SDS011;10871;50.144;8.428;2023-05-07T06:27:35;2.50;;;2.30;;
21420;SDS011;10871;50.144;8.428;2023-05-07T06:30:03;2.70;;;2.50;;
21420;SDS011;10871;50.144;8.428;2023-05-07T06:32:31;3.90;;;2.47;;
21420;SDS011;10871;50.144;8.428;2023-05-07T06:34:58;3.47;;;2.88;;
21420;SDS011;10871;50.144;8.428;2023-05-07T06:37:27;2.83;;;2.22;;
21420;SDS011;10871;50.144;8.428;2023-05-07T06:39:57;2.50;;;2.30;;
21420;SDS011;10871;50.144;8.428;2023-05-07T06:42:26;3.45;;;2.38;;
21420;SDS011;10871;50.144;8.428;2023-05-07T06:44:58;3.53;;;2.40;;
21420;SDS011;10871;50.144;8.428;2023-05-07T06:47:28;4.68;;;2.70;;
21420;SDS011;10871;50.144;8.428;2023-05-07T06:49:55;3.38;;;2.60;;
21420;SDS011;10871;50.144;8.428;2023-05-07T06:52:25;2.58;;;2.38;;
21420;SDS011;10871;50.144;8.428;2023-05-07T06:54:53;2.90;;;2.65;;
21420;SDS011;10871;50.144;8.428;2023-05-07T06:57:21;2.58;;;2.10;;
21420;SDS011;10871;50.144;8.428;2023-05-07T06:59:48;2.13;;;1.92;;
21420;SDS011;10871;50.144;8.428;2023-05-07T07:02:15;4.82;;;2.10;;
21420;SDS011;10871;50.144;8.428;2023-05-07T07:04:47;3.00;;;2.13;;
21420;SDS011;10871;50.144;8.428;2023-05-07T07:07:13;3.05;;;2.33;;
21420;SDS011;10871;50.144;8.428;2023-05-07T07:09:43;4.72;;;2.55;;
21420;SDS011;10871;50.144;8.428;2023-05-07T07:12:10;2.45;;;2.25;;
21420;SDS011;10871;50.144;8.428;2023-05-07T07:14:40;4.50;;;2.22;;
21420;SDS011;10871;50.144;8.428;2023-05-07T07:17:07;3.90;;;2.45;;
21420;SDS011;10871;50.144;8.428;2023-05-07T07:19:33;4.45;;;3.78;;
21420;SDS011;10871;50.144;8.428;2023-05-07T07:22:02;3.60;;;2.40;;
21420;SDS011;10871;50.144;8.428;2023-05-07T07:24:29;2.55;;;2.35;;
21420;SDS011;10871;50.144;8.428;2023-05-07T07:26:59;4.45;;;2.47;;
21420;SDS011;10871;50.144;8.428;2023-05-07T07:29:26;4.03;;;2.63;;
21420;SDS011;10871;50.144;8.428;2023-05-07T07:31:54;2.55;;;2.35;;
21420;SDS011;10871;50.144;8.428;2023-05-07T07:34:21;2.70;;;2.50;;
21420;SDS011;10871;50.144;8.428;2023-05-07T07:36:48;3.58;;;2.53;;
21420;SDS011;10871;50.144;8.428;2023-05-07T07:39:17;4.10;;;2.63;;
21420;SDS011;10871;50.144;8.428;2023-05-07T07:41:46;4.72;;;2.78;;
21420;SDS011;10871;50.144;8.428;2023-05-07T07:44:15;4.47;;;2.67;;
21420;SDS011;10871;50.144;8.428;2023-05-07T07:46:47;5.18;;;2.85;;
21420;SDS011;10871;50.144;8.428;2023-05-07T07:49:16;4.70;;;3.00;;
21420;SDS011;10871;50.144;8.428;2023-05-07T07:51:44;3.22;;;2.90;;
21420;SDS011;10871;50.144;8.428;2023-05-07T07:54:12;3.90;;;3.25;;
21420;SDS011;10871;50.144;8.428;2023-05-07T07:56:39;3.65;;;2.90;;
21420;SDS011;10871;50.144;8.428;2023-05-07T07:59:07;3.75;;;2.85;;
21420;SDS011;10871;50.144;8.428;2023-05-07T08:01:37;5.35;;;3.13;;
21420;SDS011;10871;50.144;8.428;2023-05-07T08:04:04;3.60;;;3.30;;
21420;SDS011;10871;50.144;8.428;2023-05-07T08:06:35;3.85;;;3.15;;
21420;SDS011;10871;50.144;8.428;2023-05-07T08:09:02;5.93;;;3.22;;
21420;SDS011;10871;50.144;8.428;2023-05-07T08:11:29;3.72;;;3.05;;
21420;SDS011;10871;50.144;8.428;2023-05-07T08:13:55;5.18;;;3.78;;
21420;SDS011;10871;50.144;8.428;2023-05-07T08:16:25;3.85;;;3.45;;
21420;SDS011;10871;50.144;8.428;2023-05-07T08:18:52;5.60;;;3.85;;
21420;SDS011;10871;50.144;8.428;2023-05-07T08:21:19;4.82;;;3.90;;
21420;SDS011;10871;50.144;8.428;2023-05-07T08:23:46;4.15;;;3.53;;
21420;SDS011;10871;50.144;8.428;2023-05-07T08:26:14;4.10;;;3.80;;
21420;SDS011;10871;50.144;8.428;2023-05-07T08:28:41;4.45;;;3.33;;
21420;SDS011;10871;50.144;8.428;2023-05-07T08:31:09;3.60;;;3.30;;
21420;SDS011;10871;50.144;8.428;2023-05-07T08:33:39;4.43;;;3.80;;
21420;SDS011;10871;50.144;8.428;2023-05-07T08:36:06;5.18;;;3.70;;
21420;SDS011;10871;50.144;8.428;2023-05-07T08:38:33;4.72;;;3.60;;
21420;SDS011;10871;50.144;8.428;2023-05-07T08:41:00;3.90;;;3.50;;
21420;SDS011;10871;50.144;8.428;2023-05-07T08:43:28;3.70;;;3.40;;
21420;SDS011;10871;50.144;8.428;2023-05-07T08:45:58;4.78;;;3.30;;
21420;SDS011;10871;50.144;8.428;2023-05-07T08:48:31;3.47;;;3.13;;
21420;SDS011;10871;50.144;8.428;2023-05-07T08:51:05;4.93;;;3.20;;
21420;SDS011;10871;50.144;8.428;2023-05-07T08:53:32;3.80;;;3.50;;
21420;SDS011;10871;50.144;8.428;2023-05-07T08:56:01;3.63;;;3.30;;
21420;SDS011;10871;50.144;8.428;2023-05-07T08:58:29;5.53;;;3.60;;
21420;SDS011;10871;50.144;8.428;2023-05-07T09:00:56;3.70;;;3.33;;
21420;SDS011;10871;50.144;8.428;2023-05-07T09:03:25;3.65;;;3.35;;
21420;SDS011;10871;50.144;8.428;2023-05-07T09:05:53;5.03;;;3.80;;
21420;SDS011;10871;50.144;8.428;2023-05-07T09:08:24;6.80;;;3.55;;
21420;SDS011;10871;50.144;8.428;2023-05-07T09:10:53;5.07;;;4.00;;
21420;SDS011;10871;50.144;8.428;2023-05-07T09:13:22;4.50;;;4.10;;
21420;SDS011;10871;50.144;8.428;2023-05-07T09:15:49;6.30;;;4.30;;
21420;SDS011;10871;50.144;8.428;2023-05-07T09:18:16;4.97;;;3.90;;
21420;SDS011;10871;50.144;8.428;2023-05-07T09:20:45;4.05;;;3.75;;
21420;SDS011;10871;50.144;8.428;2023-05-07T09:23:12;4.10;;;3.80;;
21420;SDS011;10871;50.144;8.428;2023-05-07T09:25:42;4.68;;;3.70;;
21420;SDS011;10871;50.144;8.428;2023-05-07T09:28:15;4.38;;;3.97;;
21420;SDS011;10871;50.144;8.428;2023-05-07T09:30:41;4.45;;;3.90;;
21420;SDS011;10871;50.144;8.428;2023-05-07T09:33:11;4.68;;;4.28;;
21420;SDS011;10871;50.144;8.428;2023-05-07T09:35:41;4.60;;;3.70;;
21420;SDS011;10871;50.144;8.428;2023-05-07T09:38:12;4.70;;;3.78;;
21420;SDS011;10871;50.144;8.428;2023-05-07T09:40:39;3.97;;;3.60;;
21420;SDS011;10871;50.144;8.428;2023-05-07T09:43:11;4.50;;;3.75;;
21420;SDS011;10871;50.144;8.428;2023-05-07T09:45:53;3.92;;;3.53;;
21420;SDS011;10871;50.144;8.428;2023-05-07T09:48:24;7.05;;;3.90;;
21420;SDS011;10871;50.144;8.428;2023-05-07T09:51:15;4.35;;;3.95;;
21420;SDS011;10871;50.144;8.428;2023-05-07T09:53:42;4.15;;;3.85;;
21420;SDS011;10871;50.144;8.428;2023-05-07T09:56:10;5.15;;;4.65;;
21420;SDS011;10871;50.144;8.428;2023-05-07T09:58:37;5.70;;;4.40;;
21420;SDS011;10871;50.144;8.428;2023-05-07T10:01:07;6.28;;;4.55;;
21420;SDS011;10871;50.144;8.428;2023-05-07T10:03:35;5.47;;;4.30;;
21420;SDS011;10871;50.144;8.428;2023-05-07T10:06:04;4.82;;;4.05;;
21420;SDS011;10871;50.144;8.428;2023-05-07T10:08:31;4.78;;;4.28;;
21420;SDS011;10871;50.144;8.428;2023-05-07T10:11:00;5.05;;;4.53;;
21420;SDS011;10871;50.144;8.428;2023-05-07T10:13:28;5.82;;;4.30;;
21420;SDS011;10871;50.144;8.428;2023-05-07T10:15:58;5.68;;;4.00;;
21420;SDS011;10871;50.144;8.428;2023-05-07T10:18:31;5.80;;;4.53;;
21420;SDS011;10871;50.144;8.428;2023-05-07T10:21:11;5.35;;;4.90;;
21420;SDS011;10871;50.144;8.428;2023-05-07T10:23:38;5.90;;;5.40;;
21420;SDS011;10871;50.144;8.428;2023-05-07T10:26:05;5.75;;;4.30;;
21420;SDS011;10871;50.144;8.428;2023-05-07T10:28:34;4.78;;;4.38;;
21420;SDS011;10871;50.144;8.428;2023-05-07T10:31:11;5.13;;;4.65;;
21420;SDS011;10871;50.144;8.428;2023-05-07T10:33:45;4.93;;;4.40;;
21420;SDS011;10871;50.144;8.428;2023-05-07T10:36:17;5.22;;;4.38;;
21420;SDS011;10871;50.144;8.428;2023-05-07T10:38:45;5.55;;;4.25;;
21420;SDS011;10871;50.144;8.428;2023-05-07T10:41:12;4.80;;;4.40;;
21420;SDS011;10871;50.144;8.428;2023-05-07T10:43:42;4.68;;;4.28;;
21420;SDS011;10871;50.144;8.428;2023-05-07T10:46:17;5.18;;;4.72;;
21420;SDS011;10871;50.144;8.428;2023-05-07T10:51:21;5.35;;;4.15;;
21420;SDS011;10871;50.144;8.428;2023-05-07T10:56:46;6.65;;;3.88;;
21420;SDS011;10871;50.144;8.428;2023-05-07T11:01:57;5.13;;;4.20;;
21420;SDS011;10871;50.144;8.428;2023-05-07T11:04:33;4.38;;;4.07;;
21420;SDS011;10871;50.144;8.428;2023-05-07T11:07:25;3.85;;;3.45;;
21420;SDS011;10871;50.144;8.428;2023-05-07T11:09:56;7.45;;;4.30;;
21420;SDS011;10871;50.144;8.428;2023-05-07T11:12:48;5.05;;;4.43;;
21420;SDS011;10871;50.144;8.428;2023-05-07T11:15:35;4.83;;;4.33;;
21420;SDS011;10871;50.144;8.428;2023-05-07T11:18:06;4.15;;;3.78;;
21420;SDS011;10871;50.144;8.428;2023-05-07T11:20:47;5.82;;;4.18;;
21420;SDS011;10871;50.144;8.428;2023-05-07T11:26:20;4.85;;;4.18;;
21420;SDS011;10871;50.144;8.428;2023-05-07T11:28:48;6.00;;;4.18;;
21420;SDS011;10871;50.144;8.428;2023-05-07T11:31:29;4.25;;;3.85;;
21420;SDS011;10871;50.144;8.428;2023-05-07T11:33:59;4.03;;;3.72;;
21420;SDS011;10871;50.144;8.428;2023-05-07T11:36:30;4.35;;;3.95;;
21420;SDS011;10871;50.144;8.428;2023-05-07T11:38:59;4.07;;;3.75;;
21420;SDS011;10871;50.144;8.428;2023-05-07T11:41:35;5.35;;;4.40;;
21420;SDS011;10871;50.144;8.428;2023-05-07T11:44:03;4.95;;;4.43;;
21420;SDS011;10871;50.144;8.428;2023-05-07T11:46:30;5.47;;;3.55;;
21420;SDS011;10871;50.144;8.428;2023-05-07T11:48:58;3.97;;;3.63;;
21420;SDS011;10871;50.144;8.428;2023-05-07T11:51:26;5.53;;;3.55;;
21420;SDS011;10871;50.144;8.428;2023-05-07T11:53:53;3.70;;;3.33;;
21420;SDS011;10871;50.144;8.428;2023-05-07T11:56:20;4.35;;;3.92;;
21420;SDS011;10871;50.144;8.428;2023-05-07T11:58:47;4.10;;;3.70;;
21420;SDS011;10871;50.144;8.428;2023-05-07T12:01:15;6.03;;;3.67;;
21420;SDS011;10871;50.144;8.428;2023-05-07T12:03:43;7.50;;;4.05;;
21420;SDS011;10871;50.144;8.428;2023-05-07T12:06:16;4.20;;;3.80;;
21420;SDS011;10871;50.144;8.428;2023-05-07T12:08:43;4.65;;;3.47;;
21420;SDS011;10871;50.144;8.428;2023-05-07T12:11:14;4.10;;;3.70;;
21420;SDS011;10871;50.144;8.428;2023-05-07T12:13:42;3.88;;;3.58;;
21420;SDS011;10871;50.144;8.428;2023-05-07T12:16:09;4.07;;;3.67;;
21420;SDS011;10871;50.144;8.428;2023-05-07T12:18:38;3.75;;;3.45;;
21420;SDS011;10871;50.144;8.428;2023-05-07T12:21:05;3.50;;;3.20;;
21420;SDS011;10871;50.144;8.428;2023-05-07T12:23:36;4.28;;;3.88;;
21420;SDS011;10871;50.144;8.428;2023-05-07T12:26:03;5.97;;;3.50;;
21420;SDS011;10871;50.144;8.428;2023-05-07T12:28:36;4.50;;;3.58;;
21420;SDS011;10871;50.144;8.428;2023-05-07T12:31:03;4.50;;;4.10;;
21420;SDS011;10871;50.144;8.428;2023-05-07T12:33:30;5.15;;;3.70;;
21420;SDS011;10871;50.144;8.428;2023-05-07T12:35:58;4.32;;;3.80;;
21420;SDS011;10871;50.144;8.428;2023-05-07T12:38:27;5.38;;;3.47;;
21420;SDS011;10871;50.144;8.428;2023-05-07T12:40:59;4.10;;;3.70;;
21420;SDS011;10871;50.144;8.428;2023-05-07T12:43:26;4.47;;;3.40;;
21420;SDS011;10871;50.144;8.428;2023-05-07T12:45:54;3.92;;;3.53;;
21420;SDS011;10871;50.144;8.428;2023-05-07T12:48:23;3.30;;;3.00;;
21420;SDS011;10871;50.144;8.428;2023-05-07T12:50:50;3.67;;;3.38;;
21420;SDS011;10871;50.144;8.428;2023-05-07T12:53:19;3.35;;;3.05;;
21420;SDS011;10871;50.144;8.428;2023-05-07T12:55:47;3.83;;;3.13;;
21420;SDS011;10871;50.144;8.428;2023-05-07T12:58:17;4.00;;;3.10;;
21420;SDS011;10871;50.144;8.428;2023-05-07T13:00:45;3.30;;;3.00;;
21420;SDS011;10871;50.144;8.428;2023-05-07T13:03:20;3.30;;;3.00;;
21420;SDS011;10871;50.144;8.428;2023-05-07T13:05:47;4.28;;;3.30;;
21420;SDS011;10871;50.144;8.428;2023-05-07T13:08:23;3.20;;;2.90;;
21420;SDS011;10871;50.144;8.428;2023-05-07T13:10:49;3.22;;;2.92;;
21420;SDS011;10871;50.144;8.428;2023-05-07T13:13:16;3.65;;;3.03;;
21420;SDS011;10871;50.144;8.428;2023-05-07T13:15:44;3.75;;;3.20;;
21420;SDS011;10871;50.144;8.428;2023-05-07T13:18:11;3.28;;;2.80;;
21420;SDS011;10871;50.144;8.428;2023-05-07T13:20:38;3.33;;;2.90;;
21420;SDS011;10871;50.144;8.428;2023-05-07T13:23:04;5.63;;;2.80;;
21420;SDS011;10871;50.144;8.428;2023-05-07T13:25:31;3.78;;;3.35;;
21420;SDS011;10871;50.144;8.428;2023-05-07T13:27:58;4.43;;;2.88;;
21420;SDS011;10871;50.144;8.428;2023-05-07T13:30:36;3.08;;;2.78;;
21420;SDS011;10871;50.144;8.428;2023-05-07T13:33:03;3.40;;;3.10;;
21420;SDS011;10871;50.144;8.428;2023-05-07T13:35:30;3.20;;;2.92;;
21420;SDS011;10871;50.144;8.428;2023-05-07T13:37:56;4.22;;;3.13;;
21420;SDS011;10871;50.144;8.428;2023-05-07T13:40:23;4.35;;;2.92;;
21420;SDS011;10871;50.144;8.428;2023-05-07T13:42:50;3.97;;;2.95;;
21420;SDS011;10871;50.144;8.428;2023-05-07T13:45:17;4.07;;;3.13;;
21420;SDS011;10871;50.144;8.428;2023-05-07T13:47:45;3.28;;;2.97;;
21420;SDS011;10871;50.144;8.428;2023-05-07T13:50:13;3.40;;;3.10;;
21420;SDS011;10871;50.144;8.428;2023-05-07T13:52:40;2.90;;;2.70;;
21420;SDS011;10871;50.144;8.428;2023-05-07T13:55:07;3.40;;;3.10;;
21420;SDS011;10871;50.144;8.428;2023-05-07T13:57:34;5.53;;;3.30;;
21420;SDS011;10871;50.144;8.428;2023-05-07T14:00:01;4.97;;;3.50;;
21420;SDS011;10871;50.144;8.428;2023-05-07T14:02:29;4.00;;;3.70;;
21420;SDS011;10871;50.144;8.428;2023-05-07T14:04:56;6.22;;;4.00;;
21420;SDS011;10871;50.144;8.428;2023-05-07T14:07:23;3.00;;;2.80;;
21420;SDS011;10871;50.144;8.428;2023-05-07T14:09:49;3.47;;;3.17;;
21420;SDS011;10871;50.144;8.428;2023-05-07T14:12:16;3.47;;;3.03;;
21420;SDS011;10871;50.144;8.428;2023-05-07T14:14:42;3.45;;;2.80;;
21420;SDS011;10871;50.144;8.428;2023-05-07T14:17:09;3.00;;;2.80;;
21420;SDS011;10871;50.144;8.428;2023-05-07T14:19:36;3.42;;;2.80;;
21420;SDS011;10871;50.144;8.428;2023-05-07T14:22:02;2.95;;;2.75;;
21420;SDS011;10871;50.144;8.428;2023-05-07T14:24:29;2.75;;;2.47;;
21420;SDS011;10871;50.144;8.428;2023-05-07T14:27:04;5.15;;;2.83;;
21420;SDS011;10871;50.144;8.428;2023-05-07T14:29:30;3.38;;;2.90;;
21420;SDS011;10871;50.144;8.428;2023-05-07T14:31:57;4.43;;;2.88;;
21420;SDS011;10871;50.144;8.428;2023-05-07T14:34:26;3.95;;;3.08;;
21420;SDS011;10871;50.144;8.428;2023-05-07T14:36:52;2.85;;;2.60;;
21420;SDS011;10871;50.144;8.428;2023-05-07T14:39:19;3.30;;;2.70;;
21420;SDS011;10871;50.144;8.428;2023-05-07T14:41:46;3.15;;;2.90;;
21420;SDS011;10871;50.144;8.428;2023-05-07T14:44:13;3.28;;;3.03;;
21420;SDS011;10871;50.144;8.428;2023-05-07T14:46:40;3.60;;;2.95;;
21420;SDS011;10871;50.144;8.428;2023-05-07T14:49:07;3.78;;;2.90;;
21420;SDS011;10871;50.144;8.428;2023-05-07T14:51:39;3.80;;;2.78;;
21420;SDS011;10871;50.144;8.428;2023-05-07T14:54:07;3.95;;;2.80;;
21420;SDS011;10871;50.144;8.428;2023-05-07T14:56:34;3.00;;;2.67;;
21420;SDS011;10871;50.144;8.428;2023-05-07T14:59:03;3.17;;;2.67;;
21420;SDS011;10871;50.144;8.428;2023-05-07T15:01:29;3.08;;;2.88;;
21420;SDS011;10871;50.144;8.428;2023-05-07T15:03:56;3.40;;;3.10;;
21420;SDS011;10871;50.144;8.428;2023-05-07T15:06:23;3.30;;;3.00;;
21420;SDS011;10871;50.144;8.428;2023-05-07T15:08:50;3.10;;;2.60;;